sensor_id;sensor_type;location;lat;lon;timestamp;pressure;altitude;pressure_sealevel;temperature
51693;BMP280;37777;53.066;21.638;2024-01-07T00:04:18;100863.66;;;-8.38
51693;BMP280;37777;53.066;21.638;2024-01-07T00:11:20;100868.09;;;-8.38
51693;BMP280;37777;53.066;21.638;2024-01-07T00:18:21;100865.25;;;-8.50
51693;BMP280;37777;53.066;21.638;2024-01-07T00:25:23;100871.88;;;-8.54
51693;BMP280;37777;53.066;21.638;2024-01-07T00:32:25;100880.72;;;-8.62
51693;BMP280;37777;53.066;21.638;2024-01-07T00:39:27;100895.09;;;-8.80
51693;BMP280;37777;53.066;21.638;2024-01-07T00:46:28;100904.94;;;-8.88
51693;BMP280;37777;53.066;21.638;2024-01-07T00:53:29;100896.22;;;-8.96
51693;BMP280;37777;53.066;21.638;2024-01-07T01:00:31;100902.50;;;-8.97
51693;BMP280;37777;53.066;21.638;2024-01-07T01:07:32;100898.44;;;-9.21
51693;BMP280;37777;53.066;21.638;2024-01-07T01:14:34;100905.91;;;-9.25
51693;BMP280;37777;53.066;21.638;2024-01-07T01:21:35;100907.91;;;-9.20
51693;BMP280;37777;53.066;21.638;2024-01-07T01:28:37;100909.13;;;-9.22
51693;BMP280;37777;53.066;21.638;2024-01-07T01:35:38;100912.91;;;-9.47
51693;BMP280;37777;53.066;21.638;2024-01-07T01:42:43;100914.53;;;-9.46
51693;BMP280;37777;53.066;21.638;2024-01-07T01:49:45;100924.06;;;-9.45
51693;BMP280;37777;53.066;21.638;2024-01-07T01:56:47;100925.84;;;-9.45
51693;BMP280;37777;53.066;21.638;2024-01-07T02:03:49;100936.25;;;-9.52
51693;BMP280;37777;53.066;21.638;2024-01-07T02:10:50;100921.56;;;-9.68
51693;BMP280;37777;53.066;21.638;2024-01-07T02:17:52;100920.06;;;-9.77
51693;BMP280;37777;53.066;21.638;2024-01-07T02:24:53;100925.38;;;-9.70
51693;BMP280;37777;53.066;21.638;2024-01-07T02:31:55;100926.84;;;-9.83
51693;BMP280;37777;53.066;21.638;2024-01-07T02:38:56;100922.34;;;-10.04
51693;BMP280;37777;53.066;21.638;2024-01-07T02:45:58;100924.16;;;-9.90
51693;BMP280;37777;53.066;21.638;2024-01-07T02:52:59;100921.97;;;-10.01
51693;BMP280;37777;53.066;21.638;2024-01-07T03:00:01;100933.09;;;-9.99
51693;BMP280;37777;53.066;21.638;2024-01-07T03:07:03;100926.31;;;-9.93
51693;BMP280;37777;53.066;21.638;2024-01-07T03:14:05;100921.84;;;-9.99
51693;BMP280;37777;53.066;21.638;2024-01-07T03:21:16;100933.84;;;-9.90
51693;BMP280;37777;53.066;21.638;2024-01-07T03:28:17;100939.13;;;-9.83
51693;BMP280;37777;53.066;21.638;2024-01-07T03:35:19;100939.88;;;-9.90
51693;BMP280;37777;53.066;21.638;2024-01-07T03:42:20;100935.88;;;-9.85
51693;BMP280;37777;53.066;21.638;2024-01-07T03:49:22;100931.53;;;-9.78
51693;BMP280;37777;53.066;21.638;2024-01-07T03:56:24;100940.28;;;-9.71
51693;BMP280;37777;53.066;21.638;2024-01-07T04:03:25;100943.94;;;-9.87
51693;BMP280;37777;53.066;21.638;2024-01-07T04:10:27;100953.75;;;-9.74
51693;BMP280;37777;53.066;21.638;2024-01-07T04:17:29;100942.63;;;-9.76
51693;BMP280;37777;53.066;21.638;2024-01-07T04:24:30;100944.44;;;-9.62
51693;BMP280;37777;53.066;21.638;2024-01-07T04:31:32;100938.19;;;-9.61
51693;BMP280;37777;53.066;21.638;2024-01-07T04:38:34;100940.19;;;-9.63
51693;BMP280;37777;53.066;21.638;2024-01-07T04:45:35;100938.59;;;-9.57
51693;BMP280;37777;53.066;21.638;2024-01-07T04:52:37;100937.88;;;-9.51
51693;BMP280;37777;53.066;21.638;2024-01-07T04:59:38;100939.00;;;-9.38
51693;BMP280;37777;53.066;21.638;2024-01-07T05:06:40;100948.69;;;-9.39
51693;BMP280;37777;53.066;21.638;2024-01-07T05:13:41;100953.22;;;-9.48
51693;BMP280;37777;53.066;21.638;2024-01-07T05:20:43;100966.03;;;-9.38
51693;BMP280;37777;53.066;21.638;2024-01-07T05:27:44;100960.16;;;-9.40
51693;BMP280;37777;53.066;21.638;2024-01-07T05:34:46;100962.56;;;-9.45
51693;BMP280;37777;53.066;21.638;2024-01-07T05:41:47;100963.38;;;-9.45
51693;BMP280;37777;53.066;21.638;2024-01-07T05:48:49;100980.25;;;-9.47
51693;BMP280;37777;53.066;21.638;2024-01-07T05:55:51;100967.78;;;-9.45
51693;BMP280;37777;53.066;21.638;2024-01-07T06:02:52;100975.38;;;-9.50
51693;BMP280;37777;53.066;21.638;2024-01-07T06:09:54;100984.53;;;-9.61
51693;BMP280;37777;53.066;21.638;2024-01-07T06:16:56;100995.22;;;-9.63
51693;BMP280;37777;53.066;21.638;2024-01-07T06:23:58;100996.19;;;-9.64
51693;BMP280;37777;53.066;21.638;2024-01-07T06:30:59;101005.06;;;-9.65
51693;BMP280;37777;53.066;21.638;2024-01-07T06:38:04;101000.91;;;-9.74
51693;BMP280;37777;53.066;21.638;2024-01-07T06:45:06;101008.66;;;-9.66
51693;BMP280;37777;53.066;21.638;2024-01-07T06:52:07;101009.56;;;-9.59
51693;BMP280;37777;53.066;21.638;2024-01-07T06:59:09;101016.50;;;-9.51
51693;BMP280;37777;53.066;21.638;2024-01-07T07:06:11;101014.09;;;-9.52
51693;BMP280;37777;53.066;21.638;2024-01-07T07:13:14;101028.72;;;-9.43
51693;BMP280;37777;53.066;21.638;2024-01-07T07:20:16;101037.63;;;-9.37
51693;BMP280;37777;53.066;21.638;2024-01-07T07:27:18;101045.75;;;-9.32
51693;BMP280;37777;53.066;21.638;2024-01-07T07:34:19;101041.31;;;-9.17
51693;BMP280;37777;53.066;21.638;2024-01-07T07:41:21;101047.88;;;-9.06
51693;BMP280;37777;53.066;21.638;2024-01-07T07:48:23;101055.38;;;-9.03
51693;BMP280;37777;53.066;21.638;2024-01-07T07:55:24;101067.50;;;-9.02
51693;BMP280;37777;53.066;21.638;2024-01-07T08:02:26;101069.13;;;-9.01
51693;BMP280;37777;53.066;21.638;2024-01-07T08:09:28;101075.97;;;-9.00
51693;BMP280;37777;53.066;21.638;2024-01-07T08:16:29;101083.22;;;-9.02
51693;BMP280;37777;53.066;21.638;2024-01-07T08:23:31;101078.06;;;-8.95
51693;BMP280;37777;53.066;21.638;2024-01-07T08:30:32;101088.47;;;-9.02
51693;BMP280;37777;53.066;21.638;2024-01-07T08:37:34;101093.59;;;-8.94
51693;BMP280;37777;53.066;21.638;2024-01-07T08:44:35;101103.41;;;-8.81
51693;BMP280;37777;53.066;21.638;2024-01-07T08:51:37;101098.97;;;-8.80
51693;BMP280;37777;53.066;21.638;2024-01-07T08:58:43;101120.88;;;-8.88
51693;BMP280;37777;53.066;21.638;2024-01-07T09:05:44;101109.03;;;-8.84
51693;BMP280;37777;53.066;21.638;2024-01-07T09:12:46;101105.66;;;-8.78
51693;BMP280;37777;53.066;21.638;2024-01-07T09:19:47;101105.22;;;-8.81
51693;BMP280;37777;53.066;21.638;2024-01-07T09:26:49;101115.00;;;-8.75
51693;BMP280;37777;53.066;21.638;2024-01-07T09:33:50;101105.22;;;-8.81
51693;BMP280;37777;53.066;21.638;2024-01-07T09:40:52;101100.47;;;-8.71
51693;BMP280;37777;53.066;21.638;2024-01-07T09:47:54;101090.41;;;-8.67
51693;BMP280;37777;53.066;21.638;2024-01-07T09:54:58;101101.19;;;-8.62
51693;BMP280;37777;53.066;21.638;2024-01-07T10:02:02;101088.75;;;-8.53
51693;BMP280;37777;53.066;21.638;2024-01-07T10:09:06;101089.50;;;-8.59
51693;BMP280;37777;53.066;21.638;2024-01-07T10:16:07;101094.56;;;-8.58
51693;BMP280;37777;53.066;21.638;2024-01-07T10:23:11;101098.13;;;-8.66
51693;BMP280;37777;53.066;21.638;2024-01-07T10:30:13;101096.88;;;-8.70
51693;BMP280;37777;53.066;21.638;2024-01-07T10:37:16;101099.03;;;-8.52
51693;BMP280;37777;53.066;21.638;2024-01-07T10:44:18;101096.97;;;-8.56
51693;BMP280;37777;53.066;21.638;2024-01-07T10:51:21;101099.59;;;-8.56
51693;BMP280;37777;53.066;21.638;2024-01-07T10:58:23;101098.63;;;-8.55
51693;BMP280;37777;53.066;21.638;2024-01-07T11:05:42;101096.63;;;-8.75
51693;BMP280;37777;53.066;21.638;2024-01-07T11:12:53;101103.19;;;-8.64
51693;BMP280;37777;53.066;21.638;2024-01-07T11:19:55;101097.97;;;-8.57
51693;BMP280;37777;53.066;21.638;2024-01-07T11:27:01;101101.00;;;-8.60
51693;BMP280;37777;53.066;21.638;2024-01-07T11:34:03;101110.59;;;-8.68
51693;BMP280;37777;53.066;21.638;2024-01-07T11:41:05;101116.34;;;-9.01
51693;BMP280;37777;53.066;21.638;2024-01-07T11:48:07;101110.94;;;-9.14
51693;BMP280;37777;53.066;21.638;2024-01-07T11:55:09;101110.41;;;-9.25
51693;BMP280;37777;53.066;21.638;2024-01-07T12:02:11;101121.31;;;-9.36
51693;BMP280;37777;53.066;21.638;2024-01-07T12:09:13;101120.38;;;-9.50
51693;BMP280;37777;53.066;21.638;2024-01-07T12:16:15;101120.66;;;-9.45
51693;BMP280;37777;53.066;21.638;2024-01-07T12:23:17;101130.31;;;-9.45
51693;BMP280;37777;53.066;21.638;2024-01-07T12:30:19;101129.72;;;-9.56
51693;BMP280;37777;53.066;21.638;2024-01-07T12:37:21;101134.19;;;-9.71
51693;BMP280;37777;53.066;21.638;2024-01-07T12:44:27;101133.00;;;-9.68
51693;BMP280;37777;53.066;21.638;2024-01-07T12:51:29;101145.81;;;-9.89
51693;BMP280;37777;53.066;21.638;2024-01-07T12:58:31;101145.44;;;-9.85
51693;BMP280;37777;53.066;21.638;2024-01-07T13:05:32;101160.88;;;-9.91
51693;BMP280;37777;53.066;21.638;2024-01-07T13:12:34;101155.03;;;-10.01
51693;BMP280;37777;53.066;21.638;2024-01-07T13:19:47;101169.69;;;-10.07
51693;BMP280;37777;53.066;21.638;2024-01-07T13:26:49;101181.13;;;-10.08
51693;BMP280;37777;53.066;21.638;2024-01-07T13:33:50;101180.03;;;-10.13
51693;BMP280;37777;53.066;21.638;2024-01-07T13:40:52;101189.06;;;-10.39
51693;BMP280;37777;53.066;21.638;2024-01-07T13:47:55;101191.41;;;-10.53
51693;BMP280;37777;53.066;21.638;2024-01-07T13:54:58;101198.59;;;-10.55
51693;BMP280;37777;53.066;21.638;2024-01-07T14:01:59;101201.28;;;-10.63
51693;BMP280;37777;53.066;21.638;2024-01-07T14:09:01;101204.94;;;-10.81
51693;BMP280;37777;53.066;21.638;2024-01-07T14:16:04;101210.19;;;-10.89
51693;BMP280;37777;53.066;21.638;2024-01-07T14:23:06;101208.44;;;-10.97
51693;BMP280;37777;53.066;21.638;2024-01-07T14:30:08;101210.41;;;-10.99
51693;BMP280;37777;53.066;21.638;2024-01-07T14:37:10;101207.31;;;-11.02
51693;BMP280;37777;53.066;21.638;2024-01-07T14:44:11;101216.00;;;-11.02
51693;BMP280;37777;53.066;21.638;2024-01-07T14:51:16;101219.25;;;-11.08
51693;BMP280;37777;53.066;21.638;2024-01-07T14:58:18;101210.28;;;-11.14
51693;BMP280;37777;53.066;21.638;2024-01-07T15:05:20;101221.13;;;-11.33
51693;BMP280;37777;53.066;21.638;2024-01-07T15:12:21;101227.31;;;-11.34
51693;BMP280;37777;53.066;21.638;2024-01-07T15:19:24;101238.09;;;-11.37
51693;BMP280;37777;53.066;21.638;2024-01-07T15:26:25;101228.63;;;-11.38
51693;BMP280;37777;53.066;21.638;2024-01-07T15:33:27;101248.25;;;-11.43
51693;BMP280;37777;53.066;21.638;2024-01-07T15:40:28;101230.09;;;-11.44
51693;BMP280;37777;53.066;21.638;2024-01-07T15:47:31;101259.34;;;-11.40
51693;BMP280;37777;53.066;21.638;2024-01-07T15:54:40;101261.44;;;-11.44
51693;BMP280;37777;53.066;21.638;2024-01-07T16:01:46;101273.88;;;-11.54
51693;BMP280;37777;53.066;21.638;2024-01-07T16:08:48;101276.81;;;-11.57
51693;BMP280;37777;53.066;21.638;2024-01-07T16:15:50;101283.16;;;-11.52
51693;BMP280;37777;53.066;21.638;2024-01-07T16:22:51;101291.69;;;-11.50
51693;BMP280;37777;53.066;21.638;2024-01-07T16:29:53;101296.75;;;-11.48
51693;BMP280;37777;53.066;21.638;2024-01-07T16:36:54;101311.91;;;-11.52
51693;BMP280;37777;53.066;21.638;2024-01-07T16:43:56;101322.03;;;-11.49
51693;BMP280;37777;53.066;21.638;2024-01-07T16:50:58;101318.13;;;-11.45
51693;BMP280;37777;53.066;21.638;2024-01-07T16:57:59;101326.47;;;-11.49
51693;BMP280;37777;53.066;21.638;2024-01-07T17:05:02;101335.41;;;-11.44
51693;BMP280;37777;53.066;21.638;2024-01-07T17:12:04;101345.75;;;-11.34
51693;BMP280;37777;53.066;21.638;2024-01-07T17:19:06;101348.81;;;-11.30
51693;BMP280;37777;53.066;21.638;2024-01-07T17:26:07;101357.31;;;-11.28
51693;BMP280;37777;53.066;21.638;2024-01-07T17:33:09;101361.91;;;-11.30
51693;BMP280;37777;53.066;21.638;2024-01-07T17:40:13;101364.53;;;-11.22
51693;BMP280;37777;53.066;21.638;2024-01-07T17:47:14;101372.72;;;-11.17
51693;BMP280;37777;53.066;21.638;2024-01-07T17:54:17;101387.22;;;-11.22
51693;BMP280;37777;53.066;21.638;2024-01-07T18:01:18;101391.03;;;-11.17
51693;BMP280;37777;53.066;21.638;2024-01-07T18:08:20;101412.56;;;-11.15
51693;BMP280;37777;53.066;21.638;2024-01-07T18:15:35;101410.31;;;-11.09
51693;BMP280;37777;53.066;21.638;2024-01-07T18:22:38;101420.25;;;-11.13
51693;BMP280;37777;53.066;21.638;2024-01-07T18:29:40;101425.00;;;-11.17
51693;BMP280;37777;53.066;21.638;2024-01-07T18:36:41;101426.28;;;-11.21
51693;BMP280;37777;53.066;21.638;2024-01-07T18:43:43;101441.81;;;-11.19
51693;BMP280;37777;53.066;21.638;2024-01-07T18:50:44;101452.13;;;-11.26
51693;BMP280;37777;53.066;21.638;2024-01-07T18:57:46;101450.94;;;-11.32
51693;BMP280;37777;53.066;21.638;2024-01-07T19:04:47;101461.03;;;-11.37
51693;BMP280;37777;53.066;21.638;2024-01-07T19:11:49;101461.03;;;-11.37
51693;BMP280;37777;53.066;21.638;2024-01-07T19:18:51;101460.22;;;-11.37
51693;BMP280;37777;53.066;21.638;2024-01-07T19:25:53;101473.91;;;-11.44
51693;BMP280;37777;53.066;21.638;2024-01-07T19:32:54;101474.75;;;-11.43
51693;BMP280;37777;53.066;21.638;2024-01-07T19:39:56;101486.00;;;-11.51
51693;BMP280;37777;53.066;21.638;2024-01-07T19:46:58;101489.38;;;-11.59
51693;BMP280;37777;53.066;21.638;2024-01-07T19:54:00;101500.16;;;-11.62
51693;BMP280;37777;53.066;21.638;2024-01-07T20:01:02;101506.38;;;-11.63
51693;BMP280;37777;53.066;21.638;2024-01-07T20:08:03;101509.31;;;-11.66
51693;BMP280;37777;53.066;21.638;2024-01-07T20:15:05;101510.06;;;-11.74
51693;BMP280;37777;53.066;21.638;2024-01-07T20:22:09;101530.53;;;-11.95
51693;BMP280;37777;53.066;21.638;2024-01-07T20:29:11;101528.34;;;-12.00
51693;BMP280;37777;53.066;21.638;2024-01-07T20:36:13;101527.13;;;-12.14
51693;BMP280;37777;53.066;21.638;2024-01-07T20:43:17;101538.97;;;-12.20
51693;BMP280;37777;53.066;21.638;2024-01-07T20:50:20;101559.97;;;-12.29
51693;BMP280;37777;53.066;21.638;2024-01-07T20:57:22;101557.88;;;-12.44
51693;BMP280;37777;53.066;21.638;2024-01-07T21:04:23;101560.47;;;-12.44
51693;BMP280;37777;53.066;21.638;2024-01-07T21:11:24;101562.34;;;-12.54
51693;BMP280;37777;53.066;21.638;2024-01-07T21:18:26;101577.88;;;-12.53
51693;BMP280;37777;53.066;21.638;2024-01-07T21:25:29;101583.03;;;-12.71
51693;BMP280;37777;53.066;21.638;2024-01-07T21:32:32;101587.78;;;-12.84
51693;BMP280;37777;53.066;21.638;2024-01-07T21:39:34;101598.38;;;-12.86
51693;BMP280;37777;53.066;21.638;2024-01-07T21:46:43;101591.28;;;-12.93
51693;BMP280;37777;53.066;21.638;2024-01-07T21:53:45;101602.13;;;-12.98
51693;BMP280;37777;53.066;21.638;2024-01-07T22:00:47;101613.81;;;-13.02
51693;BMP280;37777;53.066;21.638;2024-01-07T22:07:48;101610.44;;;-13.13
51693;BMP280;37777;53.066;21.638;2024-01-07T22:14:50;101615.41;;;-13.19
51693;BMP280;37777;53.066;21.638;2024-01-07T22:21:53;101619.25;;;-13.23
51693;BMP280;37777;53.066;21.638;2024-01-07T22:28:54;101633.69;;;-13.39
51693;BMP280;37777;53.066;21.638;2024-01-07T22:35:55;101636.88;;;-13.35
51693;BMP280;37777;53.066;21.638;2024-01-07T22:43:00;101641.50;;;-13.39
51693;BMP280;37777;53.066;21.638;2024-01-07T22:50:02;101650.28;;;-13.40
51693;BMP280;37777;53.066;21.638;2024-01-07T22:57:03;101660.19;;;-13.53
51693;BMP280;37777;53.066;21.638;2024-01-07T23:04:07;101660.50;;;-13.56
51693;BMP280;37777;53.066;21.638;2024-01-07T23:11:09;101675.81;;;-13.53
51693;BMP280;37777;53.066;21.638;2024-01-07T23:18:10;101678.53;;;-13.45
51693;BMP280;37777;53.066;21.638;2024-01-07T23:25:12;101679.50;;;-13.36
51693;BMP280;37777;53.066;21.638;2024-01-07T23:32:14;101677.31;;;-13.41
51693;BMP280;37777;53.066;21.638;2024-01-07T23:39:16;101682.66;;;-13.52
51693;BMP280;37777;53.066;21.638;2024-01-07T23:46:17;101692.41;;;-13.54
51693;BMP280;37777;53.066;21.638;2024-01-07T23:53:18;101695.00;;;-13.54
